Flight Track Log - Related Links

Times and Time Zones

All times are in EDT time to prevent confusion due to time zone crossing. See the N147SW flight status page for this flight to view local times or setup timezone preferences in your user account.

Time Position Orientation Groundspeed Altitude Reporting Facility
EDT Latitude Longitude Course Direction KTS MPH feet Rate Location/Type
Wed 06:40:25 PM 32.8333 -96.8333 127° Southeast 158 182 1,300  Level Dallas / Fort Worth TRACON
Wed 06:41:14 PM 32.8142 -96.8028 127° Southeast 179 206 3,700 3,405 Climbing Fort Worth Center
Wed 06:42:16 PM 32.7850 -96.7425 120° Southeast 222 255 7,600 3,194 Climbing Fort Worth Center
Wed 06:43:18 PM 32.8419 -96.6869 39° Northeast 286 329 10,300 2,903 Climbing Fort Worth Center
Wed 06:44:20 PM 32.9175 -96.6239 35° Northeast 314 361 13,600 3,000 Climbing Fort Worth Center
Wed 06:45:22 PM 32.9753 -96.5544 45° Northeast 316 364 16,500 2,419 Climbing Fort Worth Center
Wed 06:46:24 PM 33.0203 -96.4447 64° Northeast 343 395 18,600 1,984 Climbing Fort Worth Center
Wed 06:47:26 PM 33.0564 -96.3356 68° East 350 403 20,600 1,632 Climbing Fort Worth Center
Wed 06:48:29 PM 33.0983 -96.2078 69° East 382 440 22,000 1,392 Climbing Fort Worth Center
Wed 06:49:31 PM 33.1411 -96.0847 67° East 400 460 23,500 1,258 Climbing Fort Worth Center
Wed 06:50:33 PM 33.1817 -95.9606 69° East 401 461 24,600 1,258 Climbing Fort Worth Center
Wed 06:51:35 PM 33.2242 -95.8319 68° East 412 474 26,100 1,452 Climbing Fort Worth Center
Wed 06:52:37 PM 33.2658 -95.7019 69° East 415 478 27,600 1,597 Climbing Fort Worth Center
Wed 06:53:39 PM 33.2581 -95.5578 94° East 410 472 29,400 1,645 Climbing Fort Worth Center
Wed 06:54:41 PM 33.2083 -95.4375 116° Southeast 407 468 31,000 1,536 Climbing Fort Worth Center
Wed 06:55:44 PM 33.1553 -95.3175 118° Southeast 407 468 32,600 1,536 Climbing Fort Worth Center
Wed 06:56:46 PM 33.1022 -95.1947 117° Southeast 414 476 34,200 1,694 Climbing Fort Worth Center
Wed 06:57:48 PM 33.0375 -95.0464 117° Southeast 420 483 36,100 1,597 Climbing Fort Worth Center
Wed 06:58:50 PM 32.9831 -94.9242 118° Southeast 420 483 37,500 1,500 Climbing Fort Worth Center
Wed 06:59:52 PM 32.9289 -94.7992 117° Southeast 426 490 39,200 1,694 Climbing Fort Worth Center
Wed 07:00:54 PM 32.8750 -94.6775 118° Southeast 421 484 41,000 871 Climbing Fort Worth Center
Wed 07:01:56 PM 32.8192 -94.5514 118° Southeast 435 501 41,000  Level Fort Worth Center
Wed 07:02:59 PM 32.7492 -94.3903 117° Southeast 463 533 41,000  Level Fort Worth Center
Wed 07:04:01 PM 32.6878 -94.2517 118° Southeast 475 547 41,000  Level Fort Worth Center
Wed 07:05:03 PM 32.6253 -94.1111 118° Southeast 482 555 41,000  Level Fort Worth Center
Wed 07:06:05 PM 32.5619 -93.9703 118° Southeast 485 558 41,000  Level Fort Worth Center
Wed 07:07:07 PM 32.4978 -93.8303 118° Southeast 486 559 41,000  Level Fort Worth Center
Wed 07:08:09 PM 32.4206 -93.6592 118° Southeast 495 570 41,000  Level Fort Worth Center
Wed 07:09:11 PM 32.3578 -93.5153 117° Southeast 487 560 41,000  Level Fort Worth Center
Wed 07:10:13 PM 32.2869 -93.3778 121° Southeast 494 568 41,000  Level Fort Worth Center
Wed 07:11:16 PM 32.2025 -93.2539 129° Southeast 484 557 41,000  Level Fort Worth Center
Wed 07:12:18 PM 32.1092 -93.1175 129° Southeast 487 560 41,000  Level Fort Worth Center
Wed 07:13:20 PM 32.0233 -92.9933 129° Southeast 483 556 41,000  Level Fort Worth Center
Wed 07:14:22 PM 31.9353 -92.8672 129° Southeast 490 564 41,000  Level Fort Worth Center
Wed 07:15:24 PM 31.8514 -92.7428 128° Southeast 489 563 41,000  Level Fort Worth Center
Wed 07:16:26 PM 31.7469 -92.5947 130° Southeast 489 563 41,000  Level Fort Worth Center
Wed 07:17:28 PM 31.6606 -92.4708 129° Southeast 489 563 41,000  Level Fort Worth Center
Wed 07:18:31 PM 31.5700 -92.3406 129° Southeast 488 562 41,000  Level Fort Worth Center
Wed 07:19:33 PM 31.4836 -92.2189 130° Southeast 487 560 41,000  Level Fort Worth Center
Wed 07:20:35 PM 31.3994 -92.1014 130° Southeast 487 560 41,000  Level Fort Worth Center
Wed 07:21:37 PM 31.3128 -91.9803 130° Southeast 487 560 41,000  Level Fort Worth Center
Wed 07:22:39 PM 31.2264 -91.8603 130° Southeast 485 558 41,000 339 Level Fort Worth Center
Wed 07:23:41 PM 31.1236 -91.7153 130° Southeast 483 556 41,700 968 Climbing Fort Worth Center
Wed 07:24:43 PM 31.0419 -91.6025 130° Southeast 463 533 43,000 629 Climbing Fort Worth Center
Wed 07:25:45 PM 30.9586 -91.4861 130° Southeast 461 531 43,000  Level Fort Worth Center
Wed 07:27:01 PM 30.8547 -91.3436 130° Southeast 479 551 43,000  Level Houston Center
Wed 07:28:04 PM 30.7664 -91.2214 130° Southeast 490 564 43,000  Level Houston Center
Wed 07:29:06 PM 30.6708 -91.0886 130° Southeast 490 564 43,000  Level Houston Center
Wed 07:30:08 PM 30.5808 -90.9658 130° Southeast 496 571 43,000  Level Houston Center
Wed 07:31:10 PM 30.4936 -90.8467 130° Southeast 490 564 43,000  Level Houston Center
Wed 07:32:12 PM 30.3886 -90.7039 130° Southeast 489 563 43,000  Level Houston Center
Wed 07:33:14 PM 30.3014 -90.5861 131° Southeast 487 560 43,000  Level Houston Center
Wed 07:34:17 PM 30.2147 -90.4683 130° Southeast 486 559 43,000  Level Houston Center
Wed 07:35:19 PM 30.1281 -90.3519 131° Southeast 485 558 43,000  Level Houston Center
Wed 07:36:21 PM 30.0242 -90.2117 131° Southeast 485 558 43,000  Level Houston Center
Wed 07:37:23 PM 29.9369 -90.0947 131° Southeast 485 558 43,000  Level Houston Center
Wed 07:38:25 PM 29.8494 -89.9758 130° Southeast 486 559 43,000  Level Houston Center
Wed 07:39:27 PM 29.7611 -89.8578 131° Southeast 488 562 43,000  Level Houston Center
Wed 07:40:29 PM 29.6994 -89.7167 117° Southeast 496 571 43,000  Level Houston Center
Wed 07:41:31 PM 29.6256 -89.5486 117° Southeast 495 570 43,000  Level Houston Center
Wed 07:42:33 PM 29.5631 -89.4081 117° Southeast 495 570 43,000  Level Houston Center
Wed 07:43:36 PM 29.5014 -89.2678 117° Southeast 495 570 43,000  Level Houston Center
Wed 07:44:38 PM 29.4378 -89.1289 118° Southeast 495 570 43,000  Level Houston Center
Wed 07:45:40 PM 29.3764 -88.9881 117° Southeast 495 570 43,000  Level Houston Center
Wed 07:46:42 PM 29.3000 -88.8208 118° Southeast 495 570 43,000  Level Houston Center
Wed 07:47:44 PM 29.2356 -88.6800 118° Southeast 498 573 43,000  Level Houston Center
Wed 07:48:46 PM 29.1714 -88.5408 118° Southeast 498 573 43,000  Level Houston Center
Wed 07:49:48 PM 29.1089 -88.4006 117° Southeast 498 573 43,000  Level Houston Center
Wed 07:50:51 PM 29.0442 -88.2608 118° Southeast 498 573 43,000  Level Houston Center
Wed 07:51:53 PM 28.9803 -88.1225 118° Southeast 497 572 43,000  Level Houston Center
Wed 07:52:55 PM 28.9108 -87.9719 118° Southeast 494 568 43,000  Level Houston Center
Wed 07:53:57 PM 28.8469 -87.8328 118° Southeast 494 568 43,000  Level Houston Center
Wed 07:54:59 PM 28.7694 -87.6664 118° Southeast 495 570 43,000  Level Houston Center
Wed 07:56:01 PM 28.7056 -87.5303 118° Southeast 494 568 43,000  Level Houston Center
Wed 07:57:03 PM 28.6408 -87.3931 118° Southeast 494 568 43,000  Level Houston Center
Wed 07:58:05 PM 28.5775 -87.2558 118° Southeast 491 565 43,000  Level Houston Center
Wed 07:59:08 PM 28.5119 -87.1186 119° Southeast 491 565 43,000  Level Houston Center
Wed 08:00:10 PM 28.4478 -86.9833 118° Southeast 492 566 43,000  Level Houston Center
Wed 08:01:12 PM 28.3697 -86.8181 118° Southeast 492 566 43,000  Level Houston Center
Wed 08:02:22 PM 28.3014 -86.6597 116° Southeast 492 566 43,000  Level Jacksonville Center
Wed 08:03:22 PM 28.2594 -86.5167 108° East 474 545 43,000  Level Jacksonville Center
Wed 08:04:22 PM 28.2175 -86.3761 109° East 474 545 43,000  Level Jacksonville Center
Wed 08:05:22 PM 28.1736 -86.2264 108° East 474 545 43,000  Level Jacksonville Center
Wed 08:06:22 PM 28.1311 -86.0861 109° East 474 545 43,000  Level Jacksonville Center
Wed 08:07:22 PM 28.0889 -85.9389 108° East 474 545 43,000  Level Jacksonville Center
Wed 08:08:22 PM 28.0461 -85.7967 109° East 481 554 43,000 -500 Level Jacksonville Center
Wed 08:09:22 PM 28.0036 -85.6544 109° East 481 554 42,000 -1,538 Descending Jacksonville Center
Wed 08:11:37 PM 27.9550 -85.3317 100° East 488 562 38,000 -1,531 Descending Miami Center
Wed 08:12:38 PM 27.9567 -85.1867 89° East 478 550 37,000 -492 Descending Miami Center
Wed 08:13:39 PM 27.9525 -85.0375 92° East 478 550 37,000 -49 Level Miami Center
Wed 08:14:41 PM 27.9519 -84.8922 90° East 473 544 36,900 -976 Descending Miami Center
Wed 08:15:42 PM 27.9497 -84.7322 91° East 471 542 35,000 -2,164 Descending Miami Center
Wed 08:16:43 PM 27.9481 -84.5806 91° East 478 550 32,500 -2,410 Descending Miami Center
Wed 08:17:44 PM 27.9447 -84.4297 91° East 480 552 30,100 -2,585 Descending Miami Center
Wed 08:18:46 PM 27.9408 -84.2461 91° East 484 557 27,200 -2,585 Descending Miami Center
Wed 08:19:47 PM 27.9381 -84.0928 91° East 486 559 24,800 -2,361 Descending Miami Center
Wed 08:20:48 PM 27.9339 -83.9408 92° East 486 559 22,400 -2,361 Descending Miami Center
Wed 08:21:49 PM 27.9300 -83.7925 92° East 477 549 20,000 -2,311 Descending Miami Center
Wed 08:22:50 PM 27.9278 -83.6517 91° East 455 524 17,700 -2,098 Descending Miami Center
Wed 08:23:52 PM 27.9253 -83.5181 91° East 428 493 15,700 -1,707 Descending Miami Center
Wed 08:24:53 PM 27.9225 -83.4122 92° East 342 394 14,200 -1,672 Descending Miami Center
Wed 08:25:54 PM 27.9472 -83.3239 72° East 300 345 12,300 -1,918 Descending Miami Center
Wed 08:26:55 PM 27.9706 -83.2397 73° East 288 331 10,300 -2,016 Descending Miami Center
Wed 08:27:56 PM 27.9939 -83.1611 71° East 274 315 8,200 -2,000 Descending Miami Center
Wed 08:28:58 PM 28.0153 -83.0853 72° East 263 303 6,200 -1,707 Descending Miami Center
Wed 08:29:59 PM 28.0414 -82.9997 71° East 249 287 4,700 -1,082 Descending Miami Center
Wed 08:31:00 PM 28.0592 -82.9264 75° East 243 280 4,000 -667 Descending Miami Center
Wed 08:31:38 PM 28.0667 -82.8667 82° East 258 297 3,600 -655 Descending Tampa TRACON
Wed 08:32:50 PM 28.0667 -82.7833 90° East 229 264 2,800 -810 Descending Tampa TRACON
Wed 08:33:44 PM 28.0500 -82.7333 111° Southeast 193 222 1,900 -632 Descending Tampa TRACON
Wed 08:34:44 PM 28.0000 -82.7167 164° South 175 201 1,600 -500 Descending Tampa TRACON
Wed 08:35:44 PM 27.9667 -82.7000 156° South 164 189 900 -700 Descending Tampa TRACON
Wed 08:39:00 PM 27.9100 -82.6875 180° South  Level Estimated

Login

Don't have an account? Register now (free) for customized features, flight alerts, and more!